createdAt,value
2019-04-07T00:01:24.080Z,3.92
2019-04-07T00:03:54.951Z,3.90
2019-04-07T00:06:25.844Z,3.86
2019-04-07T00:08:56.461Z,3.83
2019-04-07T00:11:26.780Z,3.78
2019-04-07T00:13:58.930Z,3.75
2019-04-07T00:16:31.152Z,3.70
2019-04-07T00:19:01.607Z,3.71
2019-04-07T00:21:31.910Z,3.67
2019-04-07T00:24:02.486Z,3.66
2019-04-07T00:26:32.926Z,3.58
2019-04-07T00:29:03.252Z,3.53
2019-04-07T00:31:33.606Z,3.45
2019-04-07T00:34:04.515Z,3.40
2019-04-07T00:36:35.088Z,3.41
2019-04-07T00:39:07.257Z,3.39
2019-04-07T00:41:37.809Z,3.37
2019-04-07T00:44:08.164Z,3.35
2019-04-07T00:46:38.695Z,3.29
2019-04-07T00:49:09.495Z,3.25
2019-04-07T00:51:41.017Z,3.22
2019-04-07T00:54:11.508Z,3.21
2019-04-07T00:56:42.331Z,3.20
2019-04-07T00:59:13.219Z,3.17
2019-04-07T01:01:43.567Z,3.19
2019-04-07T01:04:13.833Z,3.18
2019-04-07T01:06:44.797Z,3.14
2019-04-07T01:09:15.674Z,3.08
2019-04-07T01:11:46.314Z,3.07
2019-04-07T01:14:17.032Z,3.02
2019-04-07T01:16:47.465Z,2.99
2019-04-07T01:19:17.909Z,2.99
2019-04-07T01:21:48.467Z,2.99
2019-04-07T01:24:18.978Z,2.92
2019-04-07T01:26:50.341Z,2.91
2019-04-07T01:29:20.983Z,2.86
2019-04-07T01:31:51.750Z,2.82
2019-04-07T01:34:24.018Z,2.83
2019-04-07T01:36:55.918Z,2.79
2019-04-07T01:39:28.379Z,2.75
2019-04-07T01:42:08.230Z,2.81
2019-04-07T01:44:46.142Z,2.81
2019-04-07T01:47:39.630Z,2.79
2019-04-07T01:50:21.097Z,2.76
2019-04-07T01:53:02.579Z,2.66
2019-04-07T01:55:45.482Z,2.59
2019-04-07T01:58:44.595Z,2.49
2019-04-07T02:01:32.861Z,2.45
2019-04-07T02:04:34.726Z,2.44
2019-04-07T02:07:23.789Z,2.44
2019-04-07T02:10:17.061Z,2.44
2019-04-07T02:13:21.921Z,2.40
2019-04-07T02:16:03.788Z,2.42
2019-04-07T02:19:02.846Z,2.33
2019-04-07T02:21:52.331Z,2.11
2019-04-07T02:24:39.951Z,2.03
2019-04-07T02:27:32.715Z,2.18
2019-04-07T02:30:21.726Z,2.29
2019-04-07T02:33:11.209Z,2.32
2019-04-07T02:36:19.868Z,2.31
2019-04-07T02:39:00.011Z,2.34
2019-04-07T02:41:37.975Z,2.37
2019-04-07T02:44:33.621Z,2.29
2019-04-07T02:47:29.761Z,2.23
2019-04-07T02:50:12.511Z,2.22
2019-04-07T02:53:13.746Z,2.23
2019-04-07T02:56:15.279Z,2.27
2019-04-07T02:59:14.554Z,2.22
2019-04-07T03:02:08.085Z,2.12
2019-04-07T03:04:58.497Z,2.07
2019-04-07T03:07:57.457Z,1.88
2019-04-07T03:10:36.483Z,1.79
2019-04-07T03:13:26.222Z,1.92
2019-04-07T03:16:14.769Z,1.90
2019-04-07T03:19:00.330Z,1.92
2019-04-07T03:21:53.017Z,1.84
2019-04-07T03:24:45.129Z,1.85
2019-04-07T03:27:27.180Z,1.88
2019-04-07T03:30:20.783Z,1.82
2019-04-07T03:33:19.274Z,1.84
2019-04-07T03:36:13.807Z,1.89
2019-04-07T03:39:02.033Z,1.85
2019-04-07T03:41:53.740Z,1.79
2019-04-07T03:44:46.905Z,1.76
2019-04-07T03:47:27.762Z,1.75
2019-04-07T03:50:07.151Z,1.68
2019-04-07T03:53:02.888Z,1.70
2019-04-07T03:55:59.882Z,1.70
2019-04-07T03:58:49.483Z,1.70
2019-04-07T04:01:57.428Z,1.64
2019-04-07T04:04:59.596Z,1.62
2019-04-07T04:07:44.859Z,1.62
2019-04-07T04:10:34.434Z,1.60
2019-04-07T04:13:14.439Z,1.51
2019-04-07T04:15:53.171Z,1.48
2019-04-07T04:18:23.673Z,1.45
2019-04-07T04:20:54.345Z,1.47
2019-04-07T04:23:26.121Z,1.49
2019-04-07T04:25:56.447Z,1.45
2019-04-07T04:28:27.366Z,1.41
2019-04-07T04:30:57.975Z,1.39
2019-04-07T04:33:28.154Z,1.40
2019-04-07T04:35:58.903Z,1.44
2019-04-07T04:38:29.895Z,1.45
2019-04-07T04:41:01.443Z,1.46
2019-04-07T04:43:32.597Z,1.47
2019-04-07T04:46:03.190Z,1.48
2019-04-07T04:48:33.948Z,1.49
2019-04-07T04:51:04.164Z,1.48
2019-04-07T04:53:34.913Z,1.46
2019-04-07T04:56:05.613Z,1.48
2019-04-07T04:58:36.142Z,1.51
2019-04-07T05:01:06.570Z,1.55
2019-04-07T05:03:36.891Z,1.57
2019-04-07T05:06:07.848Z,1.59
2019-04-07T05:08:39.163Z,1.67
2019-04-07T05:11:09.543Z,1.76
2019-04-07T05:13:39.724Z,1.84
2019-04-07T05:16:10.597Z,1.96
2019-04-07T05:18:41.592Z,2.05
2019-04-07T05:21:13.508Z,2.31
2019-04-07T05:23:43.907Z,2.72
2019-04-07T05:26:15.729Z,2.72
2019-04-07T05:28:45.954Z,3.03
2019-04-07T05:31:16.189Z,3.18
2019-04-07T05:33:46.527Z,3.35
2019-04-07T05:36:16.825Z,3.58
2019-04-07T05:38:47.099Z,3.60
2019-04-07T05:41:18.313Z,3.66
2019-04-07T05:43:49.023Z,3.54
2019-04-07T05:46:19.393Z,3.47
2019-04-07T05:48:50.979Z,3.39
2019-04-07T05:51:22.105Z,3.38
2019-04-07T05:53:52.691Z,3.40
2019-04-07T05:56:25.868Z,3.45
2019-04-07T05:58:54.978Z,3.47
2019-04-07T06:01:25.940Z,3.59
2019-04-07T06:03:56.674Z,3.69
2019-04-07T06:06:26.955Z,3.70
2019-04-07T06:08:57.624Z,3.68
2019-04-07T06:11:31.278Z,3.73
2019-04-07T06:14:00.819Z,3.87
2019-04-07T06:16:31.307Z,4.05
2019-04-07T06:19:06.971Z,4.24
2019-04-07T06:21:33.875Z,4.43
2019-04-07T06:24:04.769Z,4.61
2019-04-07T06:26:35.250Z,4.77
2019-04-07T06:29:05.949Z,4.89
2019-04-07T06:31:36.292Z,5.12
2019-04-07T06:34:09.590Z,5.35
2019-04-07T06:36:39.730Z,5.56
2019-04-07T06:39:09.904Z,5.68
2019-04-07T06:41:40.491Z,5.97
2019-04-07T06:44:13.830Z,6.52
2019-04-07T06:47:11.047Z,6.98
2019-04-07T06:50:18.976Z,7.12
2019-04-07T06:53:16.333Z,7.22
2019-04-07T06:56:02.007Z,7.40
2019-04-07T06:58:46.456Z,8.05
2019-04-07T07:01:26.611Z,9.54
2019-04-07T07:04:25.471Z,10.80
2019-04-07T07:07:19.153Z,11.76
2019-04-07T07:10:11.633Z,12.68
2019-04-07T07:13:28.434Z,13.17
2019-04-07T07:16:10.111Z,13.45
2019-04-07T07:18:56.074Z,13.71
2019-04-07T07:21:55.752Z,13.74
2019-04-07T07:24:26.633Z,14.11
2019-04-07T07:26:58.076Z,14.67
2019-04-07T07:29:28.864Z,14.90
2019-04-07T07:32:03.806Z,15.50
2019-04-07T07:34:34.002Z,15.90
2019-04-07T07:37:05.160Z,16.51
2019-04-07T07:39:36.043Z,17.18
2019-04-07T07:42:07.219Z,17.82
2019-04-07T07:44:39.599Z,18.21
2019-04-07T07:47:10.271Z,18.45
2019-04-07T07:49:41.506Z,18.38
2019-04-07T07:52:16.547Z,18.94
2019-04-07T07:54:46.088Z,19.03
2019-04-07T07:57:21.006Z,19.47
2019-04-07T07:59:48.647Z,19.35
2019-04-07T08:02:19.910Z,20.43
2019-04-07T08:04:52.804Z,21.10
2019-04-07T08:07:23.637Z,22.05
2019-04-07T08:09:55.793Z,22.64
2019-04-07T08:12:27.089Z,22.99
2019-04-07T08:14:58.608Z,22.83
2019-04-07T08:17:31.642Z,21.94
2019-04-07T08:20:01.116Z,21.03
2019-04-07T08:22:39.123Z,21.18
2019-04-07T08:25:05.300Z,21.20
2019-04-07T08:27:39.607Z,21.72
2019-04-07T08:30:13.600Z,22.53
2019-04-07T08:32:43.283Z,22.67
2019-04-07T08:35:14.288Z,23.04
2019-04-07T08:37:47.120Z,22.25
2019-04-07T08:40:16.892Z,22.40
2019-04-07T08:42:49.067Z,22.92
2019-04-07T08:45:19.699Z,23.43
2019-04-07T08:47:51.726Z,23.68
2019-04-07T08:50:22.757Z,23.83
2019-04-07T08:52:55.433Z,23.11
2019-04-07T08:55:28.195Z,22.92
2019-04-07T08:58:02.237Z,23.15
2019-04-07T09:00:33.633Z,23.31
2019-04-07T09:03:10.558Z,24.06
2019-04-07T09:05:36.582Z,23.97
2019-04-07T09:08:07.761Z,24.30
2019-04-07T09:10:43.090Z,24.27
2019-04-07T09:13:14.146Z,25.45
2019-04-07T09:15:54.561Z,25.62
2019-04-07T09:18:30.741Z,25.84
2019-04-07T09:21:37.283Z,24.90
2019-04-07T09:24:11.440Z,25.26
2019-04-07T09:26:59.492Z,25.54
2019-04-07T09:30:09.666Z,26.50
2019-04-07T09:33:08.177Z,27.12
2019-04-07T09:35:58.756Z,28.12
2019-04-07T09:38:34.193Z,29.27
2019-04-07T09:41:32.544Z,30.54
2019-04-07T09:44:37.772Z,31.38
2019-04-07T09:47:47.778Z,32.75
2019-04-07T09:50:48.143Z,33.39
2019-04-07T09:53:48.768Z,32.62
2019-04-07T09:56:44.132Z,34.41
2019-04-07T09:59:26.173Z,34.92
2019-04-07T10:02:14.703Z,34.86
2019-04-07T10:04:58.503Z,35.45
2019-04-07T10:07:47.842Z,34.94
2019-04-07T10:10:43.637Z,35.28
2019-04-07T10:13:30.703Z,34.43
2019-04-07T10:16:10.627Z,35.76
2019-04-07T10:19:14.115Z,35.58
2019-04-07T10:22:03.682Z,37.46
2019-04-07T10:24:56.025Z,37.20
2019-04-07T10:27:36.843Z,37.83
2019-04-07T10:30:25.939Z,37.50
2019-04-07T10:33:22.570Z,37.78
2019-04-07T10:36:18.053Z,38.11
2019-04-07T10:39:08.653Z,39.35
2019-04-07T10:42:13.751Z,39.95
2019-04-07T10:45:09.672Z,40.44
2019-04-07T10:48:05.850Z,40.37
2019-04-07T10:50:44.071Z,40.68
2019-04-07T10:53:37.032Z,39.97
2019-04-07T10:56:29.746Z,41.04
2019-04-07T10:59:22.124Z,41.73
2019-04-07T11:02:20.645Z,42.08
2019-04-07T11:05:08.492Z,42.13
2019-04-07T11:08:13.835Z,42.18
2019-04-07T11:11:22.374Z,40.26
2019-04-07T11:14:18.831Z,38.47
2019-04-07T11:17:00.362Z,37.12
2019-04-07T11:20:05.026Z,36.24
2019-04-07T11:23:10.733Z,35.99
2019-04-07T11:26:00.612Z,36.88
2019-04-07T11:28:49.099Z,35.90
2019-04-07T11:31:39.499Z,35.05
2019-04-07T11:34:35.541Z,33.29
2019-04-07T11:37:35.289Z,34.15
2019-04-07T11:40:25.352Z,32.83
2019-04-07T11:43:15.292Z,31.92
2019-04-07T11:46:02.430Z,31.28
2019-04-07T11:48:43.549Z,31.68
2019-04-07T11:51:28.021Z,29.93
2019-04-07T11:54:26.892Z,31.82
2019-04-07T11:57:23.046Z,34.07
2019-04-07T12:00:16.085Z,35.52
2019-04-07T12:03:24.779Z,36.62
2019-04-07T12:06:23.450Z,36.01
2019-04-07T12:09:15.368Z,36.01
2019-04-07T12:12:04.791Z,36.94
2019-04-07T12:14:47.176Z,35.44
2019-04-07T12:17:30.843Z,35.95
2019-04-07T12:20:21.329Z,33.18
2019-04-07T12:23:01.598Z,32.93
2019-04-07T12:25:54.727Z,32.43
2019-04-07T12:28:47.617Z,31.87
2019-04-07T12:31:39.118Z,31.43
2019-04-07T12:34:17.855Z,30.92
2019-04-07T12:37:06.211Z,30.89
2019-04-07T12:39:55.775Z,30.38
2019-04-07T12:42:38.546Z,30.27
2019-04-07T12:45:43.703Z,28.60
2019-04-07T12:48:40.329Z,28.42
2019-04-07T12:51:31.829Z,26.32
2019-04-07T12:54:12.136Z,27.02
2019-04-07T12:57:06.241Z,26.87
2019-04-07T12:59:56.118Z,26.87
2019-04-07T13:02:40.438Z,27.25
2019-04-07T13:05:39.209Z,27.32
2019-04-07T13:08:40.946Z,27.70
2019-04-07T13:11:31.288Z,26.35
2019-04-07T13:14:15.224Z,23.63
2019-04-07T13:17:07.900Z,22.72
2019-04-07T13:20:09.658Z,22.06
2019-04-07T13:22:55.454Z,22.68
2019-04-07T13:25:59.058Z,22.98
2019-04-07T13:28:47.739Z,22.87
2019-04-07T13:31:30.332Z,22.93
2019-04-07T13:34:30.810Z,21.82
2019-04-07T13:37:20.018Z,21.56
2019-04-07T13:40:25.219Z,21.61
2019-04-07T13:43:23.595Z,21.71
2019-04-07T13:46:21.836Z,21.42
2019-04-07T13:49:16.095Z,21.70
2019-04-07T13:52:11.907Z,21.70
2019-04-07T13:55:05.869Z,21.72
2019-04-07T13:57:49.368Z,22.04
2019-04-07T14:00:38.129Z,22.18
2019-04-07T14:03:19.259Z,21.53
2019-04-07T14:06:14.701Z,22.08
2019-04-07T14:09:06.744Z,22.20
2019-04-07T14:12:05.486Z,22.26
2019-04-07T14:14:41.106Z,21.82
2019-04-07T14:17:29.686Z,22.02
2019-04-07T14:20:21.478Z,22.20
2019-04-07T14:23:09.828Z,22.30
2019-04-07T14:25:47.450Z,21.80
2019-04-07T14:28:50.076Z,21.84
2019-04-07T14:31:45.852Z,21.57
2019-04-07T14:34:36.036Z,21.91
2019-04-07T14:37:40.792Z,21.91
2019-04-07T14:40:21.340Z,21.92
2019-04-07T14:43:09.335Z,21.97
2019-04-07T14:46:10.053Z,21.57
2019-04-07T14:49:15.586Z,21.94
2019-04-07T14:52:15.617Z,22.02
2019-04-07T14:55:08.599Z,21.80
2019-04-07T14:58:09.772Z,22.03
2019-04-07T15:00:54.725Z,22.13
2019-04-07T15:03:25.329Z,21.94
2019-04-07T15:05:57.969Z,22.03
2019-04-07T15:08:34.340Z,22.07
2019-04-07T15:11:16.783Z,21.98
2019-04-07T15:13:47.959Z,21.66
2019-04-07T15:16:20.701Z,21.71
2019-04-07T15:18:52.241Z,21.74
2019-04-07T15:21:23.858Z,21.67
2019-04-07T15:24:01.906Z,21.54
2019-04-07T15:26:29.924Z,21.29
2019-04-07T15:29:05.363Z,21.35
2019-04-07T15:31:33.408Z,21.38
2019-04-07T15:34:06.366Z,21.38
2019-04-07T15:36:36.401Z,21.41
2019-04-07T15:39:09.858Z,21.62
2019-04-07T15:41:42.516Z,21.55
2019-04-07T15:44:14.998Z,21.03
2019-04-07T15:46:49.089Z,20.85
2019-04-07T15:49:18.488Z,20.67
2019-04-07T15:51:49.835Z,20.61
2019-04-07T15:54:23.351Z,20.51
2019-04-07T15:56:52.843Z,20.13
2019-04-07T15:59:24.882Z,20.06
2019-04-07T16:01:56.195Z,19.90
2019-04-07T16:04:28.647Z,19.83
2019-04-07T16:07:00.213Z,19.75
2019-04-07T16:09:39.719Z,19.65
2019-04-07T16:12:03.711Z,19.48
2019-04-07T16:14:35.141Z,19.23
2019-04-07T16:17:07.314Z,19.23
2019-04-07T16:19:42.780Z,19.13
2019-04-07T16:22:12.450Z,19.04
2019-04-07T16:24:41.916Z,18.92
2019-04-07T16:27:14.077Z,18.87
2019-04-07T16:29:46.189Z,18.82
2019-04-07T16:32:17.137Z,18.74
2019-04-07T16:34:47.602Z,18.62
2019-04-07T16:37:18.590Z,18.53
2019-04-07T16:39:49.046Z,18.46
2019-04-07T16:42:19.835Z,18.38
2019-04-07T16:44:51.019Z,18.34
2019-04-07T16:47:25.727Z,18.26
2019-04-07T16:49:54.594Z,18.25
2019-04-07T16:52:25.570Z,18.12
2019-04-07T16:54:56.606Z,18.08
2019-04-07T16:57:31.098Z,18.08
2019-04-07T17:00:01.551Z,18.07
2019-04-07T17:02:33.855Z,18.03
2019-04-07T17:05:05.601Z,17.96
2019-04-07T17:07:36.696Z,17.85
2019-04-07T17:10:07.991Z,17.78
2019-04-07T17:12:40.643Z,17.65
2019-04-07T17:15:12.203Z,17.57
2019-04-07T17:17:43.512Z,17.50
2019-04-07T17:20:15.495Z,17.42
2019-04-07T17:22:48.162Z,17.32
2019-04-07T17:25:18.409Z,17.24
2019-04-07T17:27:53.765Z,17.11
2019-04-07T17:30:26.185Z,16.99
2019-04-07T17:32:57.357Z,16.91
2019-04-07T17:35:28.508Z,16.76
2019-04-07T17:38:05.011Z,16.67
2019-04-07T17:40:37.723Z,16.54
2019-04-07T17:43:30.174Z,16.35
2019-04-07T17:46:15.538Z,16.29
2019-04-07T17:49:12.024Z,16.13
2019-04-07T17:52:11.019Z,15.99
2019-04-07T17:54:59.044Z,15.78
2019-04-07T17:57:48.361Z,15.67
2019-04-07T18:00:30.180Z,15.57
2019-04-07T18:03:26.019Z,15.41
2019-04-07T18:06:24.090Z,15.39
2019-04-07T18:09:20.235Z,15.29
2019-04-07T18:12:12.762Z,15.24
2019-04-07T18:14:56.977Z,15.21
2019-04-07T18:17:35.468Z,15.13
2019-04-07T18:20:25.539Z,15.09
2019-04-07T18:23:13.635Z,15.05
2019-04-07T18:25:51.831Z,14.97
2019-04-07T18:28:39.224Z,14.87
2019-04-07T18:31:23.977Z,14.82
2019-04-07T18:34:39.750Z,14.80
2019-04-07T18:37:36.440Z,14.77
2019-04-07T18:40:27.345Z,14.74
2019-04-07T18:43:26.668Z,14.71
2019-04-07T18:46:16.829Z,14.64
2019-04-07T18:49:01.175Z,14.57
2019-04-07T18:51:52.328Z,14.53
2019-04-07T18:54:51.109Z,14.54
2019-04-07T18:57:46.760Z,14.53
2019-04-07T19:00:37.402Z,14.39
2019-04-07T19:03:26.506Z,14.18
2019-04-07T19:06:21.964Z,14.14
2019-04-07T19:09:11.143Z,13.90
2019-04-07T19:12:06.748Z,13.92
2019-04-07T19:15:03.141Z,13.83
2019-04-07T19:17:50.467Z,13.92
2019-04-07T19:20:58.989Z,13.96
2019-04-07T19:23:40.908Z,13.96
2019-04-07T19:26:39.994Z,13.94
2019-04-07T19:29:39.105Z,13.93
2019-04-07T19:32:40.001Z,13.84
2019-04-07T19:35:23.143Z,13.78
2019-04-07T19:38:29.698Z,13.68
2019-04-07T19:41:26.360Z,13.50
2019-04-07T19:44:17.480Z,13.44
2019-04-07T19:47:01.520Z,13.20
2019-04-07T19:49:54.368Z,13.20
2019-04-07T19:52:47.710Z,13.15
2019-04-07T19:55:41.047Z,13.05
2019-04-07T19:58:17.746Z,13.08
2019-04-07T20:01:10.560Z,13.00
2019-04-07T20:04:00.316Z,13.06
2019-04-07T20:06:39.817Z,13.06
2019-04-07T20:09:30.023Z,13.05
2019-04-07T20:12:18.478Z,13.00
2019-04-07T20:15:14.810Z,12.98
2019-04-07T20:18:01.057Z,12.88
2019-04-07T20:20:44.942Z,12.88
2019-04-07T20:23:35.802Z,12.85
2019-04-07T20:26:24.545Z,12.83
2019-04-07T20:29:17.216Z,12.78
2019-04-07T20:32:06.881Z,12.63
2019-04-07T20:34:48.372Z,12.59
2019-04-07T20:37:46.924Z,12.52
2019-04-07T20:40:45.405Z,12.48
2019-04-07T20:43:30.822Z,12.33
2019-04-07T20:46:27.426Z,12.23
2019-04-07T20:49:15.970Z,11.93
2019-04-07T20:52:01.885Z,11.94
2019-04-07T20:54:42.582Z,11.79
2019-04-07T20:57:43.183Z,11.80
2019-04-07T21:00:35.624Z,11.78
2019-04-07T21:03:31.867Z,11.70
2019-04-07T21:06:15.160Z,11.66
2019-04-07T21:09:03.829Z,11.58
2019-04-07T21:11:59.632Z,11.54
2019-04-07T21:14:47.935Z,11.51
2019-04-07T21:17:45.027Z,11.31
2019-04-07T21:20:53.002Z,11.32
2019-04-07T21:23:42.213Z,11.36
2019-04-07T21:26:39.203Z,11.32
2019-04-07T21:29:34.640Z,11.22
2019-04-07T21:32:24.872Z,11.33
2019-04-07T21:35:26.265Z,11.33
2019-04-07T21:38:16.200Z,11.33
2019-04-07T21:41:21.020Z,11.29
2019-04-07T21:44:02.605Z,11.31
2019-04-07T21:46:54.174Z,11.31
2019-04-07T21:49:47.505Z,11.30
2019-04-07T21:52:43.014Z,11.30
2019-04-07T21:55:31.046Z,11.29
2019-04-07T21:58:22.358Z,11.29
2019-04-07T22:01:09.394Z,11.29
2019-04-07T22:04:05.223Z,11.26
2019-04-07T22:07:01.652Z,11.27
2019-04-07T22:10:00.130Z,11.25
2019-04-07T22:12:44.285Z,11.19
2019-04-07T22:15:42.128Z,11.19
2019-04-07T22:18:15.496Z,11.13
2019-04-07T22:20:59.119Z,11.07
2019-04-07T22:23:44.286Z,11.03
2019-04-07T22:26:33.772Z,10.95
2019-04-07T22:29:18.253Z,10.94
2019-04-07T22:32:01.498Z,10.90
2019-04-07T22:34:46.161Z,10.83
2019-04-07T22:37:30.282Z,10.80
2019-04-07T22:40:19.760Z,10.78
2019-04-07T22:43:03.743Z,10.80
2019-04-07T22:45:52.713Z,10.79
2019-04-07T22:48:34.370Z,10.84
2019-04-07T22:51:14.936Z,10.82
2019-04-07T22:54:05.740Z,10.88
2019-04-07T22:56:43.060Z,10.82
2019-04-07T22:59:34.325Z,10.83
2019-04-07T23:02:11.651Z,10.83
2019-04-07T23:04:48.640Z,10.79
2019-04-07T23:07:18.830Z,10.67
2019-04-07T23:09:53.869Z,10.67
2019-04-07T23:12:24.475Z,10.64
2019-04-07T23:14:55.023Z,10.65
2019-04-07T23:17:28.364Z,10.55
2019-04-07T23:19:58.919Z,10.58
2019-04-07T23:22:29.830Z,10.54
2019-04-07T23:25:00.178Z,10.53
2019-04-07T23:27:30.327Z,10.46
2019-04-07T23:30:01.256Z,10.48
2019-04-07T23:32:31.688Z,10.44
2019-04-07T23:35:01.874Z,10.42
2019-04-07T23:37:33.003Z,10.38
2019-04-07T23:40:06.869Z,10.44
2019-04-07T23:42:38.247Z,10.42
2019-04-07T23:45:08.779Z,10.40
2019-04-07T23:47:39.387Z,10.40
2019-04-07T23:50:11.513Z,10.25
2019-04-07T23:52:41.885Z,10.30
2019-04-07T23:55:12.902Z,10.22
2019-04-07T23:57:43.304Z,10.15
